Golden Dolphin — WYZ5247 — position and weather

sailwx.info

Track history (hours):
 
Tides and Currents Weather Stations Pressure Air Temp Water Temp Dewpoint Dewpoint Depression Visibility Wind Speed Wind Dir Waves Ship Positions

Oceanographic research ship Golden Dolphin (USA)

Owner: ROSS LABORATORIES INC, SEATTLE, WA. More information available from US FCC via Universal Licensing System and Coast Guard Vessel Documentation Center.

Last reported at 2018-May-16 02:39 UTC. Time now 2018-May-27 13:59 UTC.
Position N 47°39' W 122°23'.
Warning: this ship's position is 11 days out of date.

; draft 2.2 m.

Type: Dredging. MMSI: 367117140.

Date/timePositionNaut miles runAvg speedWind from/ knotsBaromVisibWave heightAir tempDewpointWater temp
2018-May-16 02:39N 47°39' W 122°23'0 0.0
2018-May-16 02:30N 47°39' W 122°23'1 1.6
2018-May-16 02:00N 47°40' W 122°24'1 1.8
2018-May-16 01:29N 47°41' W 122°25'1 2.2
2018-May-16 01:00N 47°42' W 122°25'0 0.2
2018-May-16 00:30N 47°41' W 122°25'3 5.4
2018-May-16 00:00N 47°44' W 122°28'0 0.3
2018-May-15 23:30N 47°44' W 122°28'2 4.2
2018-May-15 23:00N 47°45' W 122°25'0 0.8
2018-May-15 22:30N 47°45' W 122°25'0 0.3
2018-May-15 22:00N 47°45' W 122°25'4 7.6
2018-May-15 21:30N 47°41' W 122°25'1 1.4
2018-May-15 21:00N 47°41' W 122°25'0 0.0
2018-May-15 20:30N 47°40' W 122°25'0 0.3
2018-May-15 20:00N 47°40' W 122°25'1 2.4
2018-May-15 19:30N 47°40' W 122°24'0 0.5
2018-May-15 19:00N 47°40' W 122°23'3 5.5
2018-May-15 18:30N 47°38' W 122°20'0 0.2
2018-May-15 18:00N 47°38' W 122°20'0 0.3
2018-May-15 17:30N 47°38' W 122°20'1 3.0
2018-May-15 17:00N 47°39' W 122°22'1 1.6
2018-May-15 16:30N 47°39' W 122°23'0 0.0
2018-May-15 16:00N 47°39' W 122°23'0 0.0
2018-May-15 15:30N 47°39' W 122°23'0 0.0
2018-May-15 15:00N 47°39' W 122°23'0 0.0
2018-May-15 14:30N 47°39' W 122°23'0 0.0
2018-May-15 14:00N 47°39' W 122°23'0 0.0
2018-May-15 13:30N 47°39' W 122°23'0 0.0
2018-May-15 13:00N 47°39' W 122°23'0 0.0
2018-May-15 12:27N 47°39' W 122°23'0 0.0
2018-May-15 12:00N 47°39' W 122°23'0 0.0
2018-May-15 11:27N 47°39' W 122°23'0 0.0
2018-May-15 11:00N 47°39' W 122°23'0 0.0
2018-May-15 10:30N 47°39' W 122°23'0 0.0
2018-May-15 10:00N 47°39' W 122°23'0 0.0
2018-May-15 09:30N 47°39' W 122°23'0 0.0
2018-May-15 09:00N 47°39' W 122°23'0 0.0
2018-May-15 08:30N 47°39' W 122°23'0 0.0
2018-May-15 08:00N 47°39' W 122°23'0 0.0
2018-May-15 07:30N 47°39' W 122°23'0 0.0
2018-May-15 06:57N 47°39' W 122°23'0 0.0
2018-May-15 06:30N 47°39' W 122°23'0 0.0
2018-May-15 06:00N 47°39' W 122°23'0 0.0
2018-May-15 05:30N 47°39' W 122°23'0 0.0
2018-May-15 05:00N 47°39' W 122°23'0 0.0
2018-May-15 04:30N 47°39' W 122°23'0 0.0
2018-May-15 04:00N 47°39' W 122°23'0 0.0
2018-May-15 03:30N 47°39' W 122°23'0 0.0
2018-May-15 03:00N 47°39' W 122°23'0 0.0
2018-May-15 02:30N 47°39' W 122°23'0 0.0
2018-May-15 02:00N 47°39' W 122°23'0 0.0
2018-May-15 01:30N 47°39' W 122°23'0 0.0
2018-May-15 01:00N 47°39' W 122°23'0 0.0
2018-May-15 00:30N 47°39' W 122°23'0 0.0
2018-May-15 00:00N 47°39' W 122°23'0 0.0
2018-May-14 23:30N 47°39' W 122°23'0 0.0
2018-May-14 23:00N 47°39' W 122°23'0 0.0
2018-May-14 22:30N 47°39' W 122°23'0 0.0
2018-May-14 22:00N 47°39' W 122°23'0 0.0
2018-May-14 21:30N 47°39' W 122°23'0 0.0
2018-May-14 21:00N 47°39' W 122°23'0 0.0
2018-May-14 20:30N 47°39' W 122°23'0 0.0
2018-May-14 20:00N 47°39' W 122°23'0 0.0
2018-May-14 19:30N 47°39' W 122°23'0 0.0
2018-May-14 19:00N 47°39' W 122°23'0 0.0
2018-May-13 02:03N 47°39' W 122°23'0 0.0
2018-May-13 02:00N 47°39' W 122°23'0 0.0
2018-May-13 01:30N 47°39' W 122°23'0 0.0
2018-May-13 01:00N 47°39' W 122°23'0 0.0
2018-May-13 00:30N 47°39' W 122°23'0 0.0
2018-May-12 22:55N 47°39' W 122°23'0 0.0
2018-May-12 22:25N 47°39' W 122°23'0 0.0
2018-May-12 21:58N 47°39' W 122°23'0 0.0
2018-May-12 21:28N 47°39' W 122°23'0 0.0
2018-May-12 20:58N 47°39' W 122°23'0 0.0
2018-May-12 17:39N 47°39' W 122°23'0 0.0
2018-May-12 17:24N 47°39' W 122°23'0 0.0
2018-May-12 17:00N 47°39' W 122°23'0 0.0
2018-May-12 16:30N 47°39' W 122°23'0 0.0
2018-May-12 15:57N 47°39' W 122°23'0 0.0
2018-May-12 15:30N 47°39' W 122°23'0 0.0
2018-May-12 15:00N 47°39' W 122°23'0 0.0
2018-May-12 14:30N 47°39' W 122°23'0 0.0
2018-May-12 14:00N 47°39' W 122°23'0 0.0
2018-May-12 04:37N 47°39' W 122°23'0 0.0
2018-May-12 04:28N 47°39' W 122°23'0 0.0
2018-May-12 03:58N 47°39' W 122°23'  
Track history (hours):
 
Tides and Currents Weather Stations Pressure Air Temp Water Temp Dewpoint Dewpoint Depression Visibility Wind Speed Wind Dir Waves Ship Positions

Oceanographic research ship Golden Dolphin (USA)

Owner: ROSS LABORATORIES INC, SEATTLE, WA. More information available from US FCC via Universal Licensing System and Coast Guard Vessel Documentation Center.

Last reported at 2018-May-16 02:39 UTC. Time now 2018-May-27 13:59 UTC.
Position N 47°39' W 122°23'.
Warning: this ship's position is 11 days out of date.

; draft 2.2 m.

Type: Dredging. MMSI: 367117140.

Date/timePositionNaut miles runAvg speedWind from/ knotsBaromVisibWave heightAir tempDewpointWater temp
2018-May-16 02:39N 47°39' W 122°23'0 0.0
2018-May-16 02:30N 47°39' W 122°23'1 1.6
2018-May-16 02:00N 47°40' W 122°24'1 1.8
2018-May-16 01:29N 47°41' W 122°25'1 2.2
2018-May-16 01:00N 47°42' W 122°25'0 0.2
2018-May-16 00:30N 47°41' W 122°25'3 5.4
2018-May-16 00:00N 47°44' W 122°28'0 0.3
2018-May-15 23:30N 47°44' W 122°28'2 4.2
2018-May-15 23:00N 47°45' W 122°25'0 0.8
2018-May-15 22:30N 47°45' W 122°25'0 0.3
2018-May-15 22:00N 47°45' W 122°25'4 7.6
2018-May-15 21:30N 47°41' W 122°25'1 1.4
2018-May-15 21:00N 47°41' W 122°25'0 0.0
2018-May-15 20:30N 47°40' W 122°25'0 0.3
2018-May-15 20:00N 47°40' W 122°25'1 2.4
2018-May-15 19:30N 47°40' W 122°24'0 0.5
2018-May-15 19:00N 47°40' W 122°23'3 5.5
2018-May-15 18:30N 47°38' W 122°20'0 0.2
2018-May-15 18:00N 47°38' W 122°20'0 0.3
2018-May-15 17:30N 47°38' W 122°20'1 3.0
2018-May-15 17:00N 47°39' W 122°22'1 1.6
2018-May-15 16:30N 47°39' W 122°23'0 0.0
2018-May-15 16:00N 47°39' W 122°23'0 0.0
2018-May-15 15:30N 47°39' W 122°23'0 0.0
2018-May-15 15:00N 47°39' W 122°23'0 0.0
2018-May-15 14:30N 47°39' W 122°23'0 0.0
2018-May-15 14:00N 47°39' W 122°23'0 0.0
2018-May-15 13:30N 47°39' W 122°23'0 0.0
2018-May-15 13:00N 47°39' W 122°23'0 0.0
2018-May-15 12:27N 47°39' W 122°23'0 0.0
2018-May-15 12:00N 47°39' W 122°23'0 0.0
2018-May-15 11:27N 47°39' W 122°23'0 0.0
2018-May-15 11:00N 47°39' W 122°23'0 0.0
2018-May-15 10:30N 47°39' W 122°23'0 0.0
2018-May-15 10:00N 47°39' W 122°23'0 0.0
2018-May-15 09:30N 47°39' W 122°23'0 0.0
2018-May-15 09:00N 47°39' W 122°23'0 0.0
2018-May-15 08:30N 47°39' W 122°23'0 0.0
2018-May-15 08:00N 47°39' W 122°23'0 0.0
2018-May-15 07:30N 47°39' W 122°23'0 0.0
2018-May-15 06:57N 47°39' W 122°23'0 0.0
2018-May-15 06:30N 47°39' W 122°23'0 0.0
2018-May-15 06:00N 47°39' W 122°23'0 0.0
2018-May-15 05:30N 47°39' W 122°23'0 0.0
2018-May-15 05:00N 47°39' W 122°23'0 0.0
2018-May-15 04:30N 47°39' W 122°23'0 0.0
2018-May-15 04:00N 47°39' W 122°23'0 0.0
2018-May-15 03:30N 47°39' W 122°23'0 0.0
2018-May-15 03:00N 47°39' W 122°23'0 0.0
2018-May-15 02:30N 47°39' W 122°23'0 0.0
2018-May-15 02:00N 47°39' W 122°23'0 0.0
2018-May-15 01:30N 47°39' W 122°23'0 0.0
2018-May-15 01:00N 47°39' W 122°23'0 0.0
2018-May-15 00:30N 47°39' W 122°23'0 0.0
2018-May-15 00:00N 47°39' W 122°23'0 0.0
2018-May-14 23:30N 47°39' W 122°23'0 0.0
2018-May-14 23:00N 47°39' W 122°23'0 0.0
2018-May-14 22:30N 47°39' W 122°23'0 0.0
2018-May-14 22:00N 47°39' W 122°23'0 0.0
2018-May-14 21:30N 47°39' W 122°23'0 0.0
2018-May-14 21:00N 47°39' W 122°23'0 0.0
2018-May-14 20:30N 47°39' W 122°23'0 0.0
2018-May-14 20:00N 47°39' W 122°23'0 0.0
2018-May-14 19:30N 47°39' W 122°23'0 0.0
2018-May-14 19:00N 47°39' W 122°23'0 0.0
2018-May-13 02:03N 47°39' W 122°23'0 0.0
2018-May-13 02:00N 47°39' W 122°23'0 0.0
2018-May-13 01:30N 47°39' W 122°23'0 0.0
2018-May-13 01:00N 47°39' W 122°23'0 0.0
2018-May-13 00:30N 47°39' W 122°23'0 0.0
2018-May-12 22:55N 47°39' W 122°23'0 0.0
2018-May-12 22:25N 47°39' W 122°23'0 0.0
2018-May-12 21:58N 47°39' W 122°23'0 0.0
2018-May-12 21:28N 47°39' W 122°23'0 0.0
2018-May-12 20:58N 47°39' W 122°23'0 0.0
2018-May-12 17:39N 47°39' W 122°23'0 0.0
2018-May-12 17:24N 47°39' W 122°23'0 0.0
2018-May-12 17:00N 47°39' W 122°23'0 0.0
2018-May-12 16:30N 47°39' W 122°23'0 0.0
2018-May-12 15:57N 47°39' W 122°23'0 0.0
2018-May-12 15:30N 47°39' W 122°23'0 0.0
2018-May-12 15:00N 47°39' W 122°23'0 0.0
2018-May-12 14:30N 47°39' W 122°23'0 0.0
2018-May-12 14:00N 47°39' W 122°23'0 0.0
2018-May-12 04:37N 47°39' W 122°23'0 0.0
2018-May-12 04:28N 47°39' W 122°23'0 0.0
2018-May-12 03:58N 47°39' W 122°23'  

Dump ship's entire track history